Terminal Aerodrome Forecast
Issued by NWS Sterling, VA

Current Version | Previous Version | Graphics & Text | Print | Product List | Glossary On
Versions: 1 2 3 4 5 6 7 8 9 10 11 12 13 14 15
000
FTUS41 KLWX 301400 AAA
TAFMRB
TAF AMD
KMRB 301455Z 3015/3112 17007KT P6SM BKN025
     FM301800 16009KT P6SM BKN100
     FM310000 16006KT P6SM VCTS BKN070CB
     FM310200 17007KT P6SM BKN070
     FM310800 17005KT 5SM BR OVC070
     FM311000 18004KT 3SM BR OVC070=

USA.gov is the U.S. government's official web portal to all federal, state and local government web resources and services.